sensor_id;sensor_type;location;lat;lon;timestamp;P1;durP1;ratioP1;P2;durP2;ratioP2
70532;SDS011;58088;51.186;17.130;2023-07-29T00:02:18;5.40;;;2.80;;
70532;SDS011;58088;51.186;17.130;2023-07-29T00:04:44;7.30;;;2.90;;
70532;SDS011;58088;51.186;17.130;2023-07-29T00:07:10;7.00;;;3.10;;
70532;SDS011;58088;51.186;17.130;2023-07-29T00:09:38;6.50;;;3.30;;
70532;SDS011;58088;51.186;17.130;2023-07-29T00:12:04;5.30;;;3.00;;
70532;SDS011;58088;51.186;17.130;2023-07-29T00:14:31;5.90;;;3.00;;
70532;SDS011;58088;51.186;17.130;2023-07-29T00:16:57;6.90;;;3.50;;
70532;SDS011;58088;51.186;17.130;2023-07-29T00:19:23;6.80;;;3.60;;
70532;SDS011;58088;51.186;17.130;2023-07-29T00:21:50;8.40;;;4.00;;
70532;SDS011;58088;51.186;17.130;2023-07-29T00:24:16;8.50;;;4.10;;
70532;SDS011;58088;51.186;17.130;2023-07-29T00:26:42;5.90;;;3.60;;
70532;SDS011;58088;51.186;17.130;2023-07-29T00:29:08;7.10;;;4.00;;
70532;SDS011;58088;51.186;17.130;2023-07-29T00:31:35;6.40;;;3.60;;
70532;SDS011;58088;51.186;17.130;2023-07-29T00:34:01;8.20;;;3.70;;
70532;SDS011;58088;51.186;17.130;2023-07-29T00:36:27;5.60;;;3.40;;
70532;SDS011;58088;51.186;17.130;2023-07-29T00:38:53;6.30;;;3.40;;
70532;SDS011;58088;51.186;17.130;2023-07-29T00:41:22;6.60;;;3.40;;
70532;SDS011;58088;51.186;17.130;2023-07-29T00:43:51;7.40;;;3.60;;
70532;SDS011;58088;51.186;17.130;2023-07-29T00:46:17;6.10;;;3.70;;
70532;SDS011;58088;51.186;17.130;2023-07-29T00:48:44;6.80;;;3.60;;
70532;SDS011;58088;51.186;17.130;2023-07-29T00:51:11;6.50;;;3.80;;
70532;SDS011;58088;51.186;17.130;2023-07-29T00:53:37;7.70;;;4.00;;
70532;SDS011;58088;51.186;17.130;2023-07-29T00:56:07;8.40;;;3.70;;
70532;SDS011;58088;51.186;17.130;2023-07-29T00:58:34;7.50;;;3.40;;
70532;SDS011;58088;51.186;17.130;2023-07-29T01:01:02;8.00;;;3.00;;
70532;SDS011;58088;51.186;17.130;2023-07-29T01:03:29;8.40;;;3.20;;
70532;SDS011;58088;51.186;17.130;2023-07-29T01:08:54;10.10;;;3.70;;
70532;SDS011;58088;51.186;17.130;2023-07-29T01:11:48;7.90;;;2.90;;
70532;SDS011;58088;51.186;17.130;2023-07-29T01:14:55;5.50;;;2.70;;
70532;SDS011;58088;51.186;17.130;2023-07-29T01:18:02;7.20;;;2.80;;
70532;SDS011;58088;51.186;17.130;2023-07-29T01:20:38;7.20;;;3.20;;
70532;SDS011;58088;51.186;17.130;2023-07-29T01:23:07;5.50;;;3.00;;
70532;SDS011;58088;51.186;17.130;2023-07-29T01:25:34;6.00;;;3.20;;
70532;SDS011;58088;51.186;17.130;2023-07-29T01:28:01;4.00;;;2.30;;
70532;SDS011;58088;51.186;17.130;2023-07-29T01:30:35;6.90;;;2.70;;
70532;SDS011;58088;51.186;17.130;2023-07-29T01:33:17;6.10;;;2.40;;
70532;SDS011;58088;51.186;17.130;2023-07-29T01:35:57;5.90;;;2.50;;
70532;SDS011;58088;51.186;17.130;2023-07-29T01:38:31;6.90;;;2.40;;
70532;SDS011;58088;51.186;17.130;2023-07-29T01:41:06;5.50;;;2.70;;
70532;SDS011;58088;51.186;17.130;2023-07-29T01:43:33;4.50;;;2.50;;
70532;SDS011;58088;51.186;17.130;2023-07-29T01:46:06;5.30;;;2.70;;
70532;SDS011;58088;51.186;17.130;2023-07-29T01:48:32;5.70;;;3.10;;
70532;SDS011;58088;51.186;17.130;2023-07-29T01:50:58;5.70;;;3.30;;
70532;SDS011;58088;51.186;17.130;2023-07-29T01:53:24;8.80;;;3.40;;
70532;SDS011;58088;51.186;17.130;2023-07-29T01:55:51;7.10;;;3.40;;
70532;SDS011;58088;51.186;17.130;2023-07-29T01:58:17;6.30;;;3.10;;
70532;SDS011;58088;51.186;17.130;2023-07-29T02:00:46;4.50;;;2.60;;
70532;SDS011;58088;51.186;17.130;2023-07-29T02:03:31;7.80;;;3.10;;
70532;SDS011;58088;51.186;17.130;2023-07-29T02:05:59;5.70;;;3.10;;
70532;SDS011;58088;51.186;17.130;2023-07-29T02:08:26;5.20;;;2.80;;
70532;SDS011;58088;51.186;17.130;2023-07-29T02:10:52;7.50;;;2.90;;
70532;SDS011;58088;51.186;17.130;2023-07-29T02:13:18;7.50;;;3.20;;
70532;SDS011;58088;51.186;17.130;2023-07-29T02:15:44;7.30;;;3.50;;
70532;SDS011;58088;51.186;17.130;2023-07-29T02:18:11;6.50;;;3.00;;
70532;SDS011;58088;51.186;17.130;2023-07-29T02:20:37;6.70;;;3.00;;
70532;SDS011;58088;51.186;17.130;2023-07-29T02:23:03;6.20;;;3.00;;
70532;SDS011;58088;51.186;17.130;2023-07-29T02:25:29;6.20;;;2.30;;
70532;SDS011;58088;51.186;17.130;2023-07-29T02:27:55;5.90;;;2.70;;
70532;SDS011;58088;51.186;17.130;2023-07-29T02:30:22;6.20;;;2.50;;
70532;SDS011;58088;51.186;17.130;2023-07-29T02:32:48;5.60;;;2.70;;
70532;SDS011;58088;51.186;17.130;2023-07-29T02:35:14;5.40;;;3.00;;
70532;SDS011;58088;51.186;17.130;2023-07-29T02:37:40;6.10;;;2.70;;
70532;SDS011;58088;51.186;17.130;2023-07-29T02:40:07;4.80;;;2.60;;
70532;SDS011;58088;51.186;17.130;2023-07-29T02:42:34;4.80;;;2.60;;
70532;SDS011;58088;51.186;17.130;2023-07-29T02:45:00;6.80;;;3.10;;
70532;SDS011;58088;51.186;17.130;2023-07-29T02:47:26;8.80;;;3.90;;
70532;SDS011;58088;51.186;17.130;2023-07-29T02:49:52;6.80;;;3.70;;
70532;SDS011;58088;51.186;17.130;2023-07-29T02:52:18;9.40;;;4.00;;
70532;SDS011;58088;51.186;17.130;2023-07-29T02:54:45;9.20;;;4.10;;
70532;SDS011;58088;51.186;17.130;2023-07-29T02:57:11;8.30;;;3.60;;
70532;SDS011;58088;51.186;17.130;2023-07-29T02:59:39;11.80;;;4.30;;
70532;SDS011;58088;51.186;17.130;2023-07-29T03:02:06;12.60;;;4.50;;
70532;SDS011;58088;51.186;17.130;2023-07-29T03:04:32;12.20;;;4.30;;
70532;SDS011;58088;51.186;17.130;2023-07-29T03:06:58;8.70;;;4.30;;
70532;SDS011;58088;51.186;17.130;2023-07-29T03:09:25;9.80;;;4.30;;
70532;SDS011;58088;51.186;17.130;2023-07-29T03:11:52;7.50;;;3.70;;
70532;SDS011;58088;51.186;17.130;2023-07-29T03:14:20;7.70;;;4.00;;
70532;SDS011;58088;51.186;17.130;2023-07-29T03:16:47;10.90;;;4.10;;
70532;SDS011;58088;51.186;17.130;2023-07-29T03:19:13;9.60;;;4.20;;
70532;SDS011;58088;51.186;17.130;2023-07-29T03:21:41;9.20;;;3.30;;
70532;SDS011;58088;51.186;17.130;2023-07-29T03:24:07;7.10;;;3.40;;
70532;SDS011;58088;51.186;17.130;2023-07-29T03:26:33;7.00;;;3.90;;
70532;SDS011;58088;51.186;17.130;2023-07-29T03:28:59;10.40;;;4.30;;
70532;SDS011;58088;51.186;17.130;2023-07-29T03:31:25;9.00;;;3.80;;
70532;SDS011;58088;51.186;17.130;2023-07-29T03:33:52;8.90;;;3.60;;
70532;SDS011;58088;51.186;17.130;2023-07-29T03:36:18;10.10;;;3.60;;
70532;SDS011;58088;51.186;17.130;2023-07-29T03:38:45;6.30;;;3.60;;
70532;SDS011;58088;51.186;17.130;2023-07-29T03:41:11;7.40;;;3.60;;
70532;SDS011;58088;51.186;17.130;2023-07-29T03:43:38;9.10;;;3.60;;
70532;SDS011;58088;51.186;17.130;2023-07-29T03:46:06;7.00;;;3.70;;
70532;SDS011;58088;51.186;17.130;2023-07-29T03:48:32;8.20;;;3.40;;
70532;SDS011;58088;51.186;17.130;2023-07-29T03:50:58;8.40;;;3.60;;
70532;SDS011;58088;51.186;17.130;2023-07-29T03:53:28;8.60;;;4.00;;
70532;SDS011;58088;51.186;17.130;2023-07-29T03:55:54;10.40;;;4.00;;
70532;SDS011;58088;51.186;17.130;2023-07-29T03:58:21;6.60;;;4.00;;
70532;SDS011;58088;51.186;17.130;2023-07-29T04:00:47;8.60;;;4.30;;
70532;SDS011;58088;51.186;17.130;2023-07-29T04:03:14;8.10;;;4.60;;
70532;SDS011;58088;51.186;17.130;2023-07-29T04:05:40;9.50;;;4.50;;
70532;SDS011;58088;51.186;17.130;2023-07-29T04:08:06;8.10;;;4.10;;
70532;SDS011;58088;51.186;17.130;2023-07-29T04:10:33;10.10;;;4.40;;
70532;SDS011;58088;51.186;17.130;2023-07-29T04:13:00;11.70;;;4.30;;
70532;SDS011;58088;51.186;17.130;2023-07-29T04:15:27;9.10;;;4.30;;
70532;SDS011;58088;51.186;17.130;2023-07-29T04:17:54;8.20;;;4.20;;
70532;SDS011;58088;51.186;17.130;2023-07-29T04:20:20;8.30;;;4.30;;
70532;SDS011;58088;51.186;17.130;2023-07-29T04:22:46;10.50;;;5.00;;
70532;SDS011;58088;51.186;17.130;2023-07-29T04:25:13;8.80;;;5.40;;
70532;SDS011;58088;51.186;17.130;2023-07-29T04:27:39;7.60;;;4.40;;
70532;SDS011;58088;51.186;17.130;2023-07-29T04:30:06;12.10;;;6.20;;
70532;SDS011;58088;51.186;17.130;2023-07-29T04:32:33;10.70;;;5.40;;
70532;SDS011;58088;51.186;17.130;2023-07-29T04:34:59;10.60;;;4.40;;
70532;SDS011;58088;51.186;17.130;2023-07-29T04:37:25;13.20;;;4.70;;
70532;SDS011;58088;51.186;17.130;2023-07-29T04:39:52;8.90;;;4.40;;
70532;SDS011;58088;51.186;17.130;2023-07-29T04:42:18;10.10;;;4.10;;
70532;SDS011;58088;51.186;17.130;2023-07-29T04:44:44;11.30;;;4.20;;
70532;SDS011;58088;51.186;17.130;2023-07-29T04:47:11;10.80;;;4.60;;
70532;SDS011;58088;51.186;17.130;2023-07-29T04:49:37;9.20;;;4.60;;
70532;SDS011;58088;51.186;17.130;2023-07-29T04:52:03;8.80;;;4.60;;
70532;SDS011;58088;51.186;17.130;2023-07-29T04:54:30;7.80;;;4.50;;
70532;SDS011;58088;51.186;17.130;2023-07-29T04:56:56;10.00;;;4.60;;
70532;SDS011;58088;51.186;17.130;2023-07-29T04:59:23;9.50;;;4.70;;
70532;SDS011;58088;51.186;17.130;2023-07-29T05:01:49;9.10;;;4.60;;
70532;SDS011;58088;51.186;17.130;2023-07-29T05:04:16;7.20;;;4.20;;
70532;SDS011;58088;51.186;17.130;2023-07-29T05:06:42;10.00;;;4.40;;
70532;SDS011;58088;51.186;17.130;2023-07-29T05:09:16;8.00;;;4.10;;
70532;SDS011;58088;51.186;17.130;2023-07-29T05:11:48;8.30;;;4.50;;
70532;SDS011;58088;51.186;17.130;2023-07-29T05:14:16;10.20;;;4.40;;
70532;SDS011;58088;51.186;17.130;2023-07-29T05:16:44;9.00;;;4.40;;
70532;SDS011;58088;51.186;17.130;2023-07-29T05:19:10;9.10;;;4.50;;
70532;SDS011;58088;51.186;17.130;2023-07-29T05:21:37;7.60;;;4.50;;
70532;SDS011;58088;51.186;17.130;2023-07-29T05:24:04;8.40;;;4.60;;
70532;SDS011;58088;51.186;17.130;2023-07-29T05:26:31;7.70;;;4.90;;
70532;SDS011;58088;51.186;17.130;2023-07-29T05:28:58;9.30;;;5.40;;
70532;SDS011;58088;51.186;17.130;2023-07-29T05:31:25;10.70;;;5.00;;
70532;SDS011;58088;51.186;17.130;2023-07-29T05:33:51;9.50;;;4.70;;
70532;SDS011;58088;51.186;17.130;2023-07-29T05:36:18;8.20;;;4.90;;
70532;SDS011;58088;51.186;17.130;2023-07-29T05:38:44;9.30;;;4.80;;
70532;SDS011;58088;51.186;17.130;2023-07-29T05:41:10;7.30;;;4.70;;
70532;SDS011;58088;51.186;17.130;2023-07-29T05:43:37;7.70;;;4.50;;
70532;SDS011;58088;51.186;17.130;2023-07-29T05:46:03;8.60;;;4.90;;
70532;SDS011;58088;51.186;17.130;2023-07-29T05:48:30;8.60;;;4.90;;
70532;SDS011;58088;51.186;17.130;2023-07-29T05:50:56;7.60;;;4.90;;
70532;SDS011;58088;51.186;17.130;2023-07-29T05:53:22;10.40;;;4.50;;
70532;SDS011;58088;51.186;17.130;2023-07-29T05:55:49;8.60;;;4.10;;
70532;SDS011;58088;51.186;17.130;2023-07-29T05:58:15;7.30;;;4.10;;
70532;SDS011;58088;51.186;17.130;2023-07-29T06:00:42;6.90;;;3.80;;
70532;SDS011;58088;51.186;17.130;2023-07-29T06:03:08;6.10;;;3.70;;
70532;SDS011;58088;51.186;17.130;2023-07-29T06:05:34;8.80;;;3.90;;
70532;SDS011;58088;51.186;17.130;2023-07-29T06:08:02;8.30;;;3.40;;
70532;SDS011;58088;51.186;17.130;2023-07-29T06:10:28;4.80;;;3.10;;
70532;SDS011;58088;51.186;17.130;2023-07-29T06:12:55;5.70;;;3.20;;
70532;SDS011;58088;51.186;17.130;2023-07-29T06:15:21;6.40;;;2.90;;
70532;SDS011;58088;51.186;17.130;2023-07-29T06:17:49;5.20;;;2.60;;
70532;SDS011;58088;51.186;17.130;2023-07-29T06:20:15;6.30;;;2.80;;
70532;SDS011;58088;51.186;17.130;2023-07-29T06:22:42;4.50;;;3.00;;
70532;SDS011;58088;51.186;17.130;2023-07-29T06:25:09;7.60;;;2.50;;
70532;SDS011;58088;51.186;17.130;2023-07-29T06:27:36;4.90;;;2.40;;
70532;SDS011;58088;51.186;17.130;2023-07-29T06:30:02;5.70;;;2.40;;
70532;SDS011;58088;51.186;17.130;2023-07-29T06:32:29;4.50;;;1.80;;
70532;SDS011;58088;51.186;17.130;2023-07-29T06:34:55;5.10;;;1.90;;
70532;SDS011;58088;51.186;17.130;2023-07-29T06:37:21;4.00;;;2.00;;
70532;SDS011;58088;51.186;17.130;2023-07-29T06:39:48;4.40;;;1.90;;
70532;SDS011;58088;51.186;17.130;2023-07-29T06:42:14;4.80;;;2.00;;
70532;SDS011;58088;51.186;17.130;2023-07-29T06:44:41;3.00;;;2.00;;
70532;SDS011;58088;51.186;17.130;2023-07-29T06:47:07;4.80;;;1.80;;
70532;SDS011;58088;51.186;17.130;2023-07-29T06:49:33;4.30;;;1.90;;
70532;SDS011;58088;51.186;17.130;2023-07-29T06:52:00;3.70;;;2.00;;
70532;SDS011;58088;51.186;17.130;2023-07-29T06:54:27;3.60;;;1.70;;
70532;SDS011;58088;51.186;17.130;2023-07-29T06:56:53;5.60;;;1.70;;
70532;SDS011;58088;51.186;17.130;2023-07-29T06:59:19;2.80;;;1.70;;
70532;SDS011;58088;51.186;17.130;2023-07-29T07:01:46;4.70;;;1.80;;
70532;SDS011;58088;51.186;17.130;2023-07-29T07:04:12;5.00;;;1.90;;
70532;SDS011;58088;51.186;17.130;2023-07-29T07:06:38;3.90;;;1.70;;
70532;SDS011;58088;51.186;17.130;2023-07-29T07:09:05;4.10;;;1.80;;
70532;SDS011;58088;51.186;17.130;2023-07-29T07:11:31;4.00;;;1.80;;
70532;SDS011;58088;51.186;17.130;2023-07-29T07:13:57;3.00;;;1.70;;
70532;SDS011;58088;51.186;17.130;2023-07-29T07:16:23;4.10;;;2.00;;
70532;SDS011;58088;51.186;17.130;2023-07-29T07:18:50;4.10;;;1.80;;
70532;SDS011;58088;51.186;17.130;2023-07-29T07:21:16;2.90;;;1.70;;
70532;SDS011;58088;51.186;17.130;2023-07-29T07:23:42;3.20;;;1.70;;
70532;SDS011;58088;51.186;17.130;2023-07-29T07:26:08;2.70;;;1.80;;
70532;SDS011;58088;51.186;17.130;2023-07-29T07:28:35;3.60;;;1.80;;
70532;SDS011;58088;51.186;17.130;2023-07-29T07:31:01;4.90;;;1.80;;
70532;SDS011;58088;51.186;17.130;2023-07-29T07:33:28;3.40;;;1.80;;
70532;SDS011;58088;51.186;17.130;2023-07-29T07:35:54;3.60;;;1.60;;
70532;SDS011;58088;51.186;17.130;2023-07-29T07:38:20;2.80;;;1.50;;
70532;SDS011;58088;51.186;17.130;2023-07-29T07:40:54;4.10;;;1.80;;
70532;SDS011;58088;51.186;17.130;2023-07-29T07:43:21;3.40;;;1.90;;
70532;SDS011;58088;51.186;17.130;2023-07-29T07:45:48;2.40;;;1.70;;
70532;SDS011;58088;51.186;17.130;2023-07-29T07:48:14;4.80;;;1.60;;
70532;SDS011;58088;51.186;17.130;2023-07-29T07:50:43;2.80;;;1.60;;
70532;SDS011;58088;51.186;17.130;2023-07-29T07:53:09;3.00;;;1.60;;
70532;SDS011;58088;51.186;17.130;2023-07-29T07:55:35;3.00;;;1.60;;
70532;SDS011;58088;51.186;17.130;2023-07-29T07:58:01;3.10;;;1.90;;
70532;SDS011;58088;51.186;17.130;2023-07-29T08:00:27;3.70;;;1.70;;
70532;SDS011;58088;51.186;17.130;2023-07-29T08:02:53;4.80;;;1.50;;
70532;SDS011;58088;51.186;17.130;2023-07-29T08:05:20;3.90;;;1.90;;
70532;SDS011;58088;51.186;17.130;2023-07-29T08:07:46;4.50;;;1.80;;
70532;SDS011;58088;51.186;17.130;2023-07-29T08:10:12;3.50;;;1.70;;
70532;SDS011;58088;51.186;17.130;2023-07-29T08:12:38;3.70;;;1.50;;
70532;SDS011;58088;51.186;17.130;2023-07-29T08:15:05;2.50;;;1.60;;
70532;SDS011;58088;51.186;17.130;2023-07-29T08:17:31;2.50;;;1.30;;
70532;SDS011;58088;51.186;17.130;2023-07-29T08:19:57;3.20;;;1.60;;
70532;SDS011;58088;51.186;17.130;2023-07-29T08:22:23;4.50;;;1.70;;
70532;SDS011;58088;51.186;17.130;2023-07-29T08:24:50;4.30;;;1.50;;
70532;SDS011;58088;51.186;17.130;2023-07-29T08:27:16;4.00;;;1.50;;
70532;SDS011;58088;51.186;17.130;2023-07-29T08:29:42;4.50;;;1.40;;
70532;SDS011;58088;51.186;17.130;2023-07-29T08:32:09;3.20;;;1.40;;
70532;SDS011;58088;51.186;17.130;2023-07-29T08:34:35;2.40;;;1.40;;
70532;SDS011;58088;51.186;17.130;2023-07-29T08:37:01;4.30;;;1.80;;
70532;SDS011;58088;51.186;17.130;2023-07-29T08:39:28;3.80;;;2.30;;
70532;SDS011;58088;51.186;17.130;2023-07-29T08:41:59;4.40;;;1.70;;
70532;SDS011;58088;51.186;17.130;2023-07-29T08:44:42;4.10;;;1.60;;
70532;SDS011;58088;51.186;17.130;2023-07-29T08:47:09;4.90;;;1.60;;
70532;SDS011;58088;51.186;17.130;2023-07-29T08:49:38;2.70;;;1.60;;
70532;SDS011;58088;51.186;17.130;2023-07-29T08:52:07;3.10;;;1.40;;
70532;SDS011;58088;51.186;17.130;2023-07-29T08:54:33;3.20;;;1.40;;
70532;SDS011;58088;51.186;17.130;2023-07-29T08:57:00;2.40;;;1.60;;
70532;SDS011;58088;51.186;17.130;2023-07-29T08:59:26;2.70;;;1.50;;
70532;SDS011;58088;51.186;17.130;2023-07-29T09:01:54;2.60;;;1.60;;
70532;SDS011;58088;51.186;17.130;2023-07-29T09:04:23;3.90;;;1.60;;
70532;SDS011;58088;51.186;17.130;2023-07-29T09:06:51;2.10;;;1.30;;
70532;SDS011;58088;51.186;17.130;2023-07-29T09:09:17;3.10;;;1.50;;
70532;SDS011;58088;51.186;17.130;2023-07-29T09:11:43;4.50;;;1.50;;
70532;SDS011;58088;51.186;17.130;2023-07-29T09:14:10;3.00;;;1.60;;
70532;SDS011;58088;51.186;17.130;2023-07-29T09:16:37;3.90;;;2.00;;
70532;SDS011;58088;51.186;17.130;2023-07-29T09:19:04;2.50;;;1.50;;
70532;SDS011;58088;51.186;17.130;2023-07-29T09:21:31;4.50;;;1.70;;
70532;SDS011;58088;51.186;17.130;2023-07-29T09:24:02;2.00;;;1.30;;
70532;SDS011;58088;51.186;17.130;2023-07-29T09:26:33;2.30;;;1.40;;
70532;SDS011;58088;51.186;17.130;2023-07-29T09:29:00;2.30;;;1.40;;
70532;SDS011;58088;51.186;17.130;2023-07-29T09:31:28;2.10;;;1.20;;
70532;SDS011;58088;51.186;17.130;2023-07-29T09:33:57;1.90;;;1.20;;
70532;SDS011;58088;51.186;17.130;2023-07-29T09:36:30;2.50;;;1.50;;
70532;SDS011;58088;51.186;17.130;2023-07-29T09:38:58;1.90;;;1.20;;
70532;SDS011;58088;51.186;17.130;2023-07-29T09:41:28;2.20;;;1.20;;
70532;SDS011;58088;51.186;17.130;2023-07-29T09:44:03;1.90;;;1.30;;
70532;SDS011;58088;51.186;17.130;2023-07-29T09:46:37;3.60;;;1.10;;
70532;SDS011;58088;51.186;17.130;2023-07-29T09:49:05;2.70;;;1.20;;
70532;SDS011;58088;51.186;17.130;2023-07-29T09:51:37;1.70;;;1.20;;
70532;SDS011;58088;51.186;17.130;2023-07-29T09:54:07;1.90;;;1.20;;
70532;SDS011;58088;51.186;17.130;2023-07-29T09:56:39;2.40;;;1.20;;
70532;SDS011;58088;51.186;17.130;2023-07-29T09:59:09;2.90;;;1.30;;
70532;SDS011;58088;51.186;17.130;2023-07-29T10:01:36;2.20;;;1.40;;
70532;SDS011;58088;51.186;17.130;2023-07-29T10:04:03;3.10;;;1.30;;
70532;SDS011;58088;51.186;17.130;2023-07-29T10:06:30;2.50;;;1.20;;
70532;SDS011;58088;51.186;17.130;2023-07-29T10:08:58;3.00;;;1.50;;
70532;SDS011;58088;51.186;17.130;2023-07-29T10:11:25;1.90;;;1.30;;
70532;SDS011;58088;51.186;17.130;2023-07-29T10:13:53;2.10;;;1.30;;
70532;SDS011;58088;51.186;17.130;2023-07-29T10:16:21;2.60;;;1.30;;
70532;SDS011;58088;51.186;17.130;2023-07-29T10:18:48;2.00;;;1.30;;
70532;SDS011;58088;51.186;17.130;2023-07-29T10:21:15;2.90;;;1.10;;
70532;SDS011;58088;51.186;17.130;2023-07-29T10:23:43;2.50;;;1.40;;
70532;SDS011;58088;51.186;17.130;2023-07-29T10:26:16;2.40;;;1.70;;
70532;SDS011;58088;51.186;17.130;2023-07-29T10:28:47;2.60;;;1.50;;
70532;SDS011;58088;51.186;17.130;2023-07-29T10:31:17;3.20;;;1.60;;
70532;SDS011;58088;51.186;17.130;2023-07-29T10:33:44;2.80;;;1.60;;
70532;SDS011;58088;51.186;17.130;2023-07-29T10:36:12;2.10;;;1.40;;
70532;SDS011;58088;51.186;17.130;2023-07-29T10:38:40;2.30;;;1.60;;
70532;SDS011;58088;51.186;17.130;2023-07-29T10:41:06;2.30;;;1.70;;
70532;SDS011;58088;51.186;17.130;2023-07-29T10:43:35;3.50;;;1.60;;
70532;SDS011;58088;51.186;17.130;2023-07-29T10:46:21;3.30;;;1.60;;
70532;SDS011;58088;51.186;17.130;2023-07-29T10:48:55;3.40;;;1.80;;
70532;SDS011;58088;51.186;17.130;2023-07-29T10:51:31;3.50;;;2.00;;
70532;SDS011;58088;51.186;17.130;2023-07-29T10:54:10;3.20;;;2.00;;
70532;SDS011;58088;51.186;17.130;2023-07-29T10:56:41;5.20;;;2.10;;
70532;SDS011;58088;51.186;17.130;2023-07-29T11:01:41;3.20;;;2.00;;
70532;SDS011;58088;51.186;17.130;2023-07-29T11:04:25;5.80;;;1.90;;
70532;SDS011;58088;51.186;17.130;2023-07-29T11:15:26;4.70;;;2.10;;
70532;SDS011;58088;51.186;17.130;2023-07-29T11:17:56;10.00;;;3.00;;
70532;SDS011;58088;51.186;17.130;2023-07-29T11:20:29;3.80;;;2.70;;
70532;SDS011;58088;51.186;17.130;2023-07-29T11:22:58;4.00;;;2.90;;
70532;SDS011;58088;51.186;17.130;2023-07-29T11:25:29;4.70;;;2.90;;
70532;SDS011;58088;51.186;17.130;2023-07-29T11:27:57;5.50;;;2.90;;
70532;SDS011;58088;51.186;17.130;2023-07-29T11:30:25;4.10;;;2.90;;
70532;SDS011;58088;51.186;17.130;2023-07-29T11:32:59;3.30;;;2.60;;
70532;SDS011;58088;51.186;17.130;2023-07-29T11:35:25;5.50;;;2.80;;
70532;SDS011;58088;51.186;17.130;2023-07-29T11:37:53;4.20;;;3.00;;
70532;SDS011;58088;51.186;17.130;2023-07-29T11:40:23;4.60;;;2.80;;
70532;SDS011;58088;51.186;17.130;2023-07-29T11:42:51;6.20;;;2.80;;
70532;SDS011;58088;51.186;17.130;2023-07-29T11:45:19;4.20;;;2.80;;
70532;SDS011;58088;51.186;17.130;2023-07-29T11:47:47;3.90;;;2.60;;
70532;SDS011;58088;51.186;17.130;2023-07-29T11:50:14;6.50;;;2.60;;
70532;SDS011;58088;51.186;17.130;2023-07-29T11:52:45;4.40;;;2.90;;
70532;SDS011;58088;51.186;17.130;2023-07-29T11:55:14;3.60;;;2.60;;
70532;SDS011;58088;51.186;17.130;2023-07-29T11:57:42;4.20;;;2.60;;
70532;SDS011;58088;51.186;17.130;2023-07-29T12:00:10;3.70;;;2.50;;
70532;SDS011;58088;51.186;17.130;2023-07-29T12:02:42;5.00;;;2.40;;
70532;SDS011;58088;51.186;17.130;2023-07-29T12:05:13;4.20;;;2.40;;
70532;SDS011;58088;51.186;17.130;2023-07-29T12:07:42;2.70;;;2.10;;
70532;SDS011;58088;51.186;17.130;2023-07-29T12:10:10;3.00;;;2.20;;
70532;SDS011;58088;51.186;17.130;2023-07-29T12:12:47;3.00;;;2.10;;
70532;SDS011;58088;51.186;17.130;2023-07-29T12:15:27;4.80;;;2.50;;
70532;SDS011;58088;51.186;17.130;2023-07-29T12:17:59;2.70;;;1.90;;
70532;SDS011;58088;51.186;17.130;2023-07-29T12:20:26;2.80;;;2.10;;
70532;SDS011;58088;51.186;17.130;2023-07-29T12:22:58;2.40;;;1.80;;
70532;SDS011;58088;51.186;17.130;2023-07-29T12:25:28;3.20;;;1.90;;
70532;SDS011;58088;51.186;17.130;2023-07-29T12:27:54;4.60;;;1.60;;
70532;SDS011;58088;51.186;17.130;2023-07-29T12:30:22;3.80;;;1.60;;
70532;SDS011;58088;51.186;17.130;2023-07-29T12:32:50;2.70;;;1.40;;
70532;SDS011;58088;51.186;17.130;2023-07-29T12:35:16;2.20;;;1.50;;
70532;SDS011;58088;51.186;17.130;2023-07-29T12:37:42;2.40;;;1.50;;
70532;SDS011;58088;51.186;17.130;2023-07-29T12:40:22;3.20;;;1.50;;
70532;SDS011;58088;51.186;17.130;2023-07-29T12:42:52;2.50;;;1.40;;
70532;SDS011;58088;51.186;17.130;2023-07-29T12:45:19;3.30;;;1.30;;
70532;SDS011;58088;51.186;17.130;2023-07-29T12:47:47;2.20;;;1.30;;
70532;SDS011;58088;51.186;17.130;2023-07-29T12:50:13;2.50;;;1.30;;
70532;SDS011;58088;51.186;17.130;2023-07-29T12:52:39;1.90;;;1.10;;
70532;SDS011;58088;51.186;17.130;2023-07-29T12:55:06;5.40;;;1.40;;
70532;SDS011;58088;51.186;17.130;2023-07-29T12:57:35;2.10;;;1.20;;
70532;SDS011;58088;51.186;17.130;2023-07-29T13:00:03;2.00;;;1.10;;
70532;SDS011;58088;51.186;17.130;2023-07-29T13:02:29;2.60;;;1.10;;
70532;SDS011;58088;51.186;17.130;2023-07-29T13:04:57;2.80;;;1.00;;
70532;SDS011;58088;51.186;17.130;2023-07-29T13:07:23;2.10;;;1.10;;
70532;SDS011;58088;51.186;17.130;2023-07-29T13:09:50;2.70;;;1.10;;
70532;SDS011;58088;51.186;17.130;2023-07-29T13:12:16;4.20;;;1.00;;
70532;SDS011;58088;51.186;17.130;2023-07-29T13:14:42;2.20;;;1.20;;
70532;SDS011;58088;51.186;17.130;2023-07-29T13:17:08;1.90;;;1.10;;
70532;SDS011;58088;51.186;17.130;2023-07-29T13:19:35;2.00;;;1.00;;
70532;SDS011;58088;51.186;17.130;2023-07-29T13:22:01;1.90;;;0.90;;
70532;SDS011;58088;51.186;17.130;2023-07-29T13:24:28;2.40;;;1.20;;
70532;SDS011;58088;51.186;17.130;2023-07-29T13:26:54;1.50;;;0.90;;
70532;SDS011;58088;51.186;17.130;2023-07-29T13:29:20;2.90;;;1.00;;
70532;SDS011;58088;51.186;17.130;2023-07-29T13:31:46;3.10;;;1.10;;
70532;SDS011;58088;51.186;17.130;2023-07-29T13:34:12;2.10;;;1.00;;
70532;SDS011;58088;51.186;17.130;2023-07-29T13:36:39;1.90;;;1.10;;
70532;SDS011;58088;51.186;17.130;2023-07-29T13:39:05;2.40;;;1.20;;
70532;SDS011;58088;51.186;17.130;2023-07-29T13:41:32;4.60;;;1.20;;
70532;SDS011;58088;51.186;17.130;2023-07-29T13:43:58;2.40;;;1.40;;
70532;SDS011;58088;51.186;17.130;2023-07-29T13:46:24;2.60;;;1.20;;
70532;SDS011;58088;51.186;17.130;2023-07-29T13:48:50;2.50;;;1.20;;
70532;SDS011;58088;51.186;17.130;2023-07-29T13:51:16;1.90;;;1.10;;
70532;SDS011;58088;51.186;17.130;2023-07-29T13:53:42;3.00;;;1.00;;
70532;SDS011;58088;51.186;17.130;2023-07-29T13:56:08;1.60;;;1.00;;
70532;SDS011;58088;51.186;17.130;2023-07-29T13:58:35;2.50;;;1.00;;
70532;SDS011;58088;51.186;17.130;2023-07-29T14:01:01;1.60;;;1.00;;
70532;SDS011;58088;51.186;17.130;2023-07-29T14:03:27;2.30;;;0.90;;
70532;SDS011;58088;51.186;17.130;2023-07-29T14:05:54;2.10;;;1.00;;
70532;SDS011;58088;51.186;17.130;2023-07-29T14:08:20;2.00;;;0.80;;
70532;SDS011;58088;51.186;17.130;2023-07-29T14:10:49;1.90;;;1.00;;
70532;SDS011;58088;51.186;17.130;2023-07-29T14:13:15;1.80;;;1.10;;
70532;SDS011;58088;51.186;17.130;2023-07-29T14:15:42;1.70;;;1.00;;
70532;SDS011;58088;51.186;17.130;2023-07-29T14:18:08;1.70;;;1.10;;
70532;SDS011;58088;51.186;17.130;2023-07-29T14:20:34;4.00;;;1.20;;
70532;SDS011;58088;51.186;17.130;2023-07-29T14:23:00;2.70;;;1.00;;
70532;SDS011;58088;51.186;17.130;2023-07-29T14:25:27;1.80;;;1.10;;
70532;SDS011;58088;51.186;17.130;2023-07-29T14:27:53;3.30;;;1.10;;
70532;SDS011;58088;51.186;17.130;2023-07-29T14:30:19;2.30;;;1.00;;
70532;SDS011;58088;51.186;17.130;2023-07-29T14:32:46;2.90;;;1.30;;
70532;SDS011;58088;51.186;17.130;2023-07-29T14:35:12;2.00;;;1.30;;
70532;SDS011;58088;51.186;17.130;2023-07-29T14:37:38;1.80;;;1.20;;
70532;SDS011;58088;51.186;17.130;2023-07-29T14:40:05;1.80;;;1.00;;
70532;SDS011;58088;51.186;17.130;2023-07-29T14:42:32;2.90;;;1.10;;
70532;SDS011;58088;51.186;17.130;2023-07-29T14:44:58;2.20;;;1.20;;
70532;SDS011;58088;51.186;17.130;2023-07-29T14:47:25;7.10;;;1.10;;
70532;SDS011;58088;51.186;17.130;2023-07-29T14:49:51;1.60;;;1.00;;
70532;SDS011;58088;51.186;17.130;2023-07-29T14:52:17;2.20;;;1.00;;